createdAt,value
2024-01-05T00:00:19.988Z,1.45
2024-01-05T00:02:46.729Z,1.63
2024-01-05T00:05:13.558Z,1.64
2024-01-05T00:07:40.284Z,1.31
2024-01-05T00:10:07.795Z,1.46
2024-01-05T00:12:34.560Z,1.53
2024-01-05T00:15:01.383Z,1.66
2024-01-05T00:17:28.194Z,2.19
2024-01-05T00:19:55.043Z,2.49
2024-01-05T00:22:22.221Z,2.60
2024-01-05T00:24:48.862Z,3.20
2024-01-05T00:27:16.075Z,2.70
2024-01-05T00:29:42.664Z,2.22
2024-01-05T00:32:09.385Z,1.89
2024-01-05T00:34:37.383Z,1.95
2024-01-05T00:37:04.825Z,2.13
2024-01-05T00:39:31.616Z,2.35
2024-01-05T00:41:59.148Z,2.20
2024-01-05T00:44:28.238Z,2.39
2024-01-05T00:46:55.061Z,2.46
2024-01-05T00:49:21.875Z,2.47
2024-01-05T00:51:48.788Z,2.45
2024-01-05T00:54:15.666Z,2.35
2024-01-05T00:56:42.662Z,1.97
2024-01-05T00:59:09.472Z,1.72
2024-01-05T01:01:36.269Z,1.93
2024-01-05T01:04:03.204Z,1.66
2024-01-05T01:06:30.190Z,1.72
2024-01-05T01:08:57.018Z,1.77
2024-01-05T01:11:28.164Z,1.75
2024-01-05T01:13:55.386Z,1.52
2024-01-05T01:16:22.132Z,1.20
2024-01-05T01:18:49.134Z,1.03
2024-01-05T01:21:16.026Z,1.02
2024-01-05T01:23:42.827Z,1.24
2024-01-05T01:26:09.681Z,1.42
2024-01-05T01:28:36.395Z,1.71
2024-01-05T01:31:03.370Z,2.11
2024-01-05T01:33:30.254Z,2.20
2024-01-05T01:35:57.072Z,1.89
2024-01-05T01:38:23.807Z,1.96
2024-01-05T01:40:50.961Z,2.20
2024-01-05T01:43:23.533Z,2.30
2024-01-05T01:45:50.667Z,2.09
2024-01-05T01:48:19.671Z,2.12
2024-01-05T01:50:48.289Z,2.33
2024-01-05T01:53:16.923Z,2.53
2024-01-05T01:55:44.322Z,2.39
2024-01-05T01:58:13.789Z,2.24
2024-01-05T02:00:40.719Z,2.48
2024-01-05T02:03:07.798Z,2.50
2024-01-05T02:05:34.836Z,2.46
2024-01-05T02:08:01.574Z,2.00
2024-01-05T02:10:28.333Z,1.70
2024-01-05T02:12:55.539Z,1.79
2024-01-05T02:15:22.508Z,2.11
2024-01-05T02:17:49.608Z,2.22
2024-01-05T02:20:16.265Z,1.89
2024-01-05T02:22:48.258Z,1.43
2024-01-05T02:25:14.987Z,1.35
2024-01-05T02:27:42.000Z,1.10
2024-01-05T02:30:09.194Z,1.34
2024-01-05T02:32:35.909Z,1.51
2024-01-05T02:35:02.768Z,1.45
2024-01-05T02:37:30.526Z,1.65
2024-01-05T02:39:57.292Z,1.68
2024-01-05T02:42:24.134Z,1.47
2024-01-05T02:44:51.088Z,1.30
2024-01-05T02:47:17.868Z,1.15
2024-01-05T02:49:44.861Z,1.27
2024-01-05T02:52:11.782Z,1.46
2024-01-05T02:54:39.254Z,1.74
2024-01-05T02:57:06.075Z,1.59
2024-01-05T02:59:32.813Z,1.93
2024-01-05T03:02:01.365Z,1.48
2024-01-05T03:04:28.155Z,1.95
2024-01-05T03:06:54.914Z,2.11
2024-01-05T03:09:21.685Z,1.89
2024-01-05T03:11:48.682Z,2.13
2024-01-05T03:14:16.869Z,2.22
2024-01-05T03:16:43.949Z,2.24
2024-01-05T03:19:11.179Z,2.22
2024-01-05T03:21:38.052Z,2.29
2024-01-05T03:24:05.336Z,2.16
2024-01-05T03:26:31.937Z,2.24
2024-01-05T03:28:58.674Z,2.35
2024-01-05T03:31:27.105Z,2.44
2024-01-05T03:33:54.075Z,2.33
2024-01-05T03:36:21.321Z,2.49
2024-01-05T03:38:48.128Z,2.55
2024-01-05T03:41:15.335Z,2.59
2024-01-05T03:43:42.096Z,2.62
2024-01-05T03:46:12.464Z,2.48
2024-01-05T03:48:40.076Z,2.42
2024-01-05T03:51:06.960Z,1.81
2024-01-05T03:53:33.770Z,1.43
2024-01-05T03:56:01.364Z,1.54
2024-01-05T03:58:29.478Z,1.30
2024-01-05T04:00:57.249Z,1.20
2024-01-05T04:03:24.179Z,1.01
2024-01-05T04:05:51.335Z,0.83
2024-01-05T04:08:18.256Z,0.83
2024-01-05T04:10:45.032Z,0.97
2024-01-05T04:13:11.774Z,1.33
2024-01-05T04:15:39.571Z,1.60
2024-01-05T04:18:06.919Z,1.78
2024-01-05T04:20:34.134Z,1.85
2024-01-05T04:23:01.628Z,1.94
2024-01-05T04:25:28.366Z,1.93
2024-01-05T04:27:56.090Z,1.88
2024-01-05T04:30:22.891Z,1.82
2024-01-05T04:32:50.597Z,2.13
2024-01-05T04:35:17.448Z,2.53
2024-01-05T04:37:44.215Z,2.57
2024-01-05T04:40:12.085Z,2.07
2024-01-05T04:42:38.921Z,1.90
2024-01-05T04:45:06.407Z,1.93
2024-01-05T04:47:36.137Z,2.08
2024-01-05T04:50:04.723Z,2.07
2024-01-05T04:52:31.500Z,2.38
2024-01-05T04:54:58.220Z,2.58
2024-01-05T04:57:25.041Z,2.65
2024-01-05T04:59:51.816Z,2.52
2024-01-05T05:02:18.629Z,2.31
2024-01-05T05:04:47.391Z,2.38
2024-01-05T05:07:16.915Z,2.30
2024-01-05T05:09:43.758Z,2.46
2024-01-05T05:12:10.530Z,2.53
2024-01-05T05:14:38.592Z,2.51
2024-01-05T05:17:05.561Z,2.48
2024-01-05T05:19:32.437Z,2.52
2024-01-05T05:21:59.340Z,2.45
2024-01-05T05:24:26.163Z,2.28
2024-01-05T05:26:52.921Z,2.19
2024-01-05T05:29:19.672Z,1.93
2024-01-05T05:31:46.724Z,1.96
2024-01-05T05:34:13.878Z,2.03
2024-01-05T05:36:40.727Z,1.90
2024-01-05T05:39:07.519Z,2.16
2024-01-05T05:41:34.258Z,2.29
2024-01-05T05:44:01.045Z,2.11
2024-01-05T05:46:28.046Z,2.36
2024-01-05T05:48:54.877Z,2.03
2024-01-05T05:51:21.822Z,1.97
2024-01-05T05:53:48.598Z,1.88
2024-01-05T05:56:15.330Z,1.97
2024-01-05T05:58:43.734Z,2.18
2024-01-05T06:01:19.314Z,2.08
2024-01-05T06:03:46.289Z,2.21
2024-01-05T06:06:17.986Z,2.40
2024-01-05T06:08:44.837Z,2.40
2024-01-05T06:11:13.840Z,2.46
2024-01-05T06:13:40.647Z,2.30
2024-01-05T06:16:07.454Z,2.02
2024-01-05T06:18:35.028Z,1.76
2024-01-05T06:21:01.859Z,1.64
2024-01-05T06:23:28.613Z,1.50
2024-01-05T06:25:55.369Z,2.21
2024-01-05T06:28:23.504Z,2.40
2024-01-05T06:30:51.630Z,2.57
2024-01-05T06:33:18.505Z,2.69
2024-01-05T06:35:45.317Z,2.69
2024-01-05T06:38:12.140Z,2.78
2024-01-05T06:40:38.915Z,2.70
2024-01-05T06:43:05.683Z,2.78
2024-01-05T06:45:32.473Z,2.79
2024-01-05T06:47:59.475Z,2.89
2024-01-05T06:50:26.530Z,2.77
2024-01-05T06:52:53.382Z,2.67
2024-01-05T06:55:20.638Z,2.56
2024-01-05T06:57:49.111Z,2.52
2024-01-05T07:00:16.400Z,2.70
2024-01-05T07:02:43.214Z,2.73
2024-01-05T07:05:10.076Z,2.62
2024-01-05T07:07:36.827Z,2.49
2024-01-05T07:10:03.895Z,2.55
2024-01-05T07:12:30.786Z,2.46
2024-01-05T07:14:57.582Z,2.10
2024-01-05T07:17:24.426Z,1.69
2024-01-05T07:19:51.194Z,1.29
2024-01-05T07:22:17.925Z,1.30
2024-01-05T07:24:44.668Z,1.57
2024-01-05T07:27:11.968Z,1.76
2024-01-05T07:29:38.742Z,1.78
2024-01-05T07:32:06.008Z,1.66
2024-01-05T07:34:32.733Z,1.67
2024-01-05T07:37:00.040Z,1.88
2024-01-05T07:39:26.667Z,1.97
2024-01-05T07:41:53.409Z,1.91
2024-01-05T07:44:21.250Z,1.60
2024-01-05T07:46:48.245Z,1.81
2024-01-05T07:49:15.184Z,2.08
2024-01-05T07:51:42.628Z,2.75
2024-01-05T07:54:09.658Z,3.14
2024-01-05T07:56:39.892Z,3.33
2024-01-05T07:59:06.938Z,3.04
2024-01-05T08:01:33.819Z,3.33
2024-01-05T08:04:00.945Z,3.53
2024-01-05T08:06:27.975Z,3.65
2024-01-05T08:08:54.906Z,3.35
2024-01-05T08:11:22.752Z,3.43
2024-01-05T08:13:49.602Z,3.55
2024-01-05T08:16:16.386Z,3.48
2024-01-05T08:18:43.186Z,3.51
2024-01-05T08:21:10.185Z,3.72
2024-01-05T08:23:37.842Z,3.86
2024-01-05T08:26:05.207Z,4.03
2024-01-05T08:28:32.052Z,3.86
2024-01-05T08:30:59.758Z,4.00
2024-01-05T08:33:27.277Z,4.05
2024-01-05T08:35:54.141Z,3.97
2024-01-05T08:38:21.106Z,3.74
2024-01-05T08:40:50.649Z,3.70
2024-01-05T08:43:18.496Z,4.00
2024-01-05T08:45:46.511Z,4.17
2024-01-05T08:48:16.545Z,4.46
2024-01-05T08:50:44.159Z,4.96
2024-01-05T08:53:10.989Z,5.03
2024-01-05T08:55:37.778Z,4.41
2024-01-05T08:58:05.503Z,4.02
2024-01-05T09:00:32.713Z,3.61
2024-01-05T09:02:59.464Z,3.60
2024-01-05T09:05:26.317Z,3.62
2024-01-05T09:07:54.593Z,3.50
2024-01-05T09:10:21.368Z,3.49
2024-01-05T09:12:48.232Z,3.70
2024-01-05T09:15:17.670Z,3.96
2024-01-05T09:17:45.051Z,3.87
2024-01-05T09:20:13.756Z,3.93
2024-01-05T09:22:40.720Z,4.04
2024-01-05T09:25:09.490Z,4.01
2024-01-05T09:27:36.577Z,4.10
2024-01-05T09:30:04.704Z,4.20
2024-01-05T09:32:32.116Z,3.92
2024-01-05T09:34:59.248Z,4.50
2024-01-05T09:37:26.100Z,5.05
2024-01-05T09:39:53.944Z,5.01
2024-01-05T09:42:20.978Z,5.61
2024-01-05T09:44:49.446Z,5.40
2024-01-05T09:47:18.620Z,5.59
2024-01-05T09:49:50.327Z,5.62
2024-01-05T09:52:21.403Z,4.95
2024-01-05T09:54:48.207Z,5.21
2024-01-05T09:57:19.108Z,5.00
2024-01-05T09:59:48.114Z,5.37
2024-01-05T10:02:18.637Z,5.51
2024-01-05T10:04:45.532Z,5.13
2024-01-05T10:07:12.518Z,5.48
2024-01-05T10:09:50.941Z,5.53
2024-01-05T10:12:19.193Z,5.52
2024-01-05T10:14:47.983Z,5.62
2024-01-05T10:17:17.131Z,5.75
2024-01-05T10:19:44.809Z,5.66
2024-01-05T10:22:13.560Z,5.77
2024-01-05T10:24:42.107Z,5.83
2024-01-05T10:27:11.030Z,5.85
2024-01-05T10:29:39.985Z,5.96
2024-01-05T10:32:20.562Z,6.01
2024-01-05T10:34:49.955Z,5.93
2024-01-05T10:37:18.449Z,5.83
2024-01-05T10:39:49.887Z,6.23
2024-01-05T10:42:25.933Z,6.45
2024-01-05T10:44:55.037Z,6.50
2024-01-05T10:47:23.445Z,6.58
2024-01-05T10:49:52.633Z,6.60
2024-01-05T10:52:29.594Z,6.70
2024-01-05T10:54:56.456Z,6.78
2024-01-05T10:57:25.252Z,6.67
2024-01-05T10:59:55.663Z,6.35
2024-01-05T11:02:39.995Z,6.44
2024-01-05T11:05:12.584Z,6.60
2024-01-05T11:07:40.911Z,6.75
2024-01-05T11:10:22.505Z,6.75
2024-01-05T11:13:10.736Z,6.79
2024-01-05T11:16:18.221Z,6.80
2024-01-05T11:18:45.134Z,6.78
2024-01-05T11:21:17.828Z,6.91
2024-01-05T11:23:45.732Z,6.91
2024-01-05T11:26:33.512Z,7.09
2024-01-05T11:29:00.317Z,6.87
2024-01-05T11:31:54.064Z,6.94
2024-01-05T11:34:30.031Z,6.69
2024-01-05T11:36:57.034Z,6.84
2024-01-05T11:39:49.008Z,7.03
2024-01-05T11:42:25.099Z,7.19
2024-01-05T11:44:53.000Z,7.21
2024-01-05T11:47:47.691Z,7.22
2024-01-05T11:50:23.760Z,7.33
2024-01-05T11:53:23.968Z,7.42
2024-01-05T11:55:57.344Z,7.40
2024-01-05T11:58:28.129Z,7.33
2024-01-05T12:00:59.269Z,7.26
2024-01-05T12:03:27.240Z,7.09
2024-01-05T12:05:56.736Z,7.04
2024-01-05T12:08:24.132Z,7.18
2024-01-05T12:10:57.903Z,7.35
2024-01-05T12:13:28.123Z,7.24
2024-01-05T12:16:01.389Z,7.14
2024-01-05T12:18:38.276Z,7.01
2024-01-05T12:21:08.086Z,7.22
2024-01-05T12:23:35.929Z,7.05
2024-01-05T12:26:04.824Z,6.76
2024-01-05T12:28:34.596Z,6.34
2024-01-05T12:31:02.525Z,6.71
2024-01-05T12:33:31.379Z,7.04
2024-01-05T12:35:58.310Z,6.90
2024-01-05T12:38:30.778Z,7.01
2024-01-05T12:41:17.427Z,6.94
2024-01-05T12:43:49.563Z,6.84
2024-01-05T12:46:17.395Z,7.13
2024-01-05T12:48:45.207Z,7.06
2024-01-05T12:51:21.224Z,7.35
2024-01-05T12:53:59.384Z,7.46
2024-01-05T12:56:26.638Z,7.50
2024-01-05T12:58:54.804Z,7.02
2024-01-05T13:01:24.820Z,7.40
2024-01-05T13:04:01.530Z,7.40
2024-01-05T13:06:32.756Z,7.32
2024-01-05T13:09:00.585Z,7.45
2024-01-05T13:11:28.183Z,7.64
2024-01-05T13:13:56.040Z,7.65
2024-01-05T13:16:23.520Z,7.39
2024-01-05T13:18:51.186Z,7.03
2024-01-05T13:21:18.838Z,6.56
2024-01-05T13:23:48.252Z,7.05
2024-01-05T13:26:15.848Z,6.68
2024-01-05T13:28:43.458Z,7.18
2024-01-05T13:31:11.202Z,7.45
2024-01-05T13:33:39.065Z,7.67
2024-01-05T13:36:06.987Z,7.76
2024-01-05T13:38:33.885Z,7.78
2024-01-05T13:41:00.637Z,7.47
2024-01-05T13:43:27.377Z,7.73
2024-01-05T13:45:56.934Z,7.27
2024-01-05T13:48:23.924Z,7.51
2024-01-05T13:50:50.833Z,7.14
2024-01-05T13:53:17.615Z,7.55
2024-01-05T13:55:44.403Z,7.53
2024-01-05T13:58:11.809Z,7.80
2024-01-05T14:00:39.934Z,7.80
2024-01-05T14:03:07.652Z,7.24
2024-01-05T14:05:35.217Z,7.20
2024-01-05T14:08:02.938Z,7.12
2024-01-05T14:10:30.465Z,7.25
2024-01-05T14:12:59.725Z,7.42
2024-01-05T14:15:27.754Z,7.47
2024-01-05T14:17:55.600Z,7.71
2024-01-05T14:20:23.221Z,7.91
2024-01-05T14:22:50.826Z,7.87
2024-01-05T14:25:18.278Z,7.87
2024-01-05T14:27:45.877Z,7.52
2024-01-05T14:30:14.192Z,7.61
2024-01-05T14:32:41.916Z,8.03
2024-01-05T14:35:09.706Z,8.00
2024-01-05T14:37:39.678Z,8.25
2024-01-05T14:40:10.390Z,8.31
2024-01-05T14:42:38.604Z,8.59
2024-01-05T14:45:08.376Z,8.43
2024-01-05T14:47:36.296Z,7.90
2024-01-05T14:50:04.695Z,8.40
2024-01-05T14:52:32.366Z,8.30
2024-01-05T14:55:00.842Z,8.21
2024-01-05T14:57:28.494Z,8.17
2024-01-05T14:59:56.573Z,8.38
2024-01-05T15:02:24.253Z,8.36
2024-01-05T15:04:51.771Z,7.73
2024-01-05T15:07:19.471Z,7.67
2024-01-05T15:09:47.507Z,7.90
2024-01-05T15:12:15.320Z,7.76
2024-01-05T15:14:44.400Z,7.93
2024-01-05T15:17:11.990Z,7.97
2024-01-05T15:19:42.921Z,7.55
2024-01-05T15:22:10.974Z,7.70
2024-01-05T15:24:40.247Z,7.72
2024-01-05T15:27:07.931Z,7.75
2024-01-05T15:29:39.619Z,7.60
2024-01-05T15:32:07.298Z,7.62
2024-01-05T15:34:35.009Z,7.62
2024-01-05T15:37:02.960Z,7.16
2024-01-05T15:39:30.500Z,7.26
2024-01-05T15:41:57.781Z,7.24
2024-01-05T15:44:25.047Z,7.14
2024-01-05T15:46:52.665Z,6.88
2024-01-05T15:49:20.205Z,7.16
2024-01-05T15:51:50.124Z,7.18
2024-01-05T15:54:18.432Z,7.26
2024-01-05T15:56:46.150Z,7.26
2024-01-05T15:59:13.831Z,6.90
2024-01-05T16:01:42.094Z,6.94
2024-01-05T16:04:10.230Z,6.96
2024-01-05T16:06:37.915Z,7.01
2024-01-05T16:09:06.620Z,6.69
2024-01-05T16:11:33.777Z,6.96
2024-01-05T16:14:01.605Z,6.65
2024-01-05T16:16:28.824Z,6.69
2024-01-05T16:18:56.446Z,6.65
2024-01-05T16:21:25.572Z,6.66
2024-01-05T16:23:53.396Z,6.49
2024-01-05T16:26:20.557Z,5.78
2024-01-05T16:28:47.645Z,5.70
2024-01-05T16:31:15.053Z,5.93
2024-01-05T16:33:42.482Z,6.22
2024-01-05T16:36:10.426Z,6.15
2024-01-05T16:38:37.869Z,6.35
2024-01-05T16:41:10.320Z,6.79
2024-01-05T16:43:37.935Z,6.90
2024-01-05T16:46:05.563Z,6.95
2024-01-05T16:48:32.543Z,6.64
2024-01-05T16:50:59.424Z,6.34
2024-01-05T16:53:27.027Z,6.59
2024-01-05T16:55:53.831Z,6.76
2024-01-05T16:58:20.593Z,6.81
2024-01-05T17:00:47.670Z,6.65
2024-01-05T17:03:15.804Z,6.81
2024-01-05T17:05:49.070Z,6.68
2024-01-05T17:08:16.660Z,5.74
2024-01-05T17:10:44.360Z,6.29
2024-01-05T17:13:11.837Z,6.30
2024-01-05T17:15:39.507Z,6.25
2024-01-05T17:18:07.372Z,5.55
2024-01-05T17:20:35.464Z,6.04
2024-01-05T17:23:03.263Z,6.46
2024-01-05T17:25:30.649Z,6.48
2024-01-05T17:27:58.133Z,6.61
2024-01-05T17:30:26.315Z,6.73
2024-01-05T17:32:53.903Z,6.76
2024-01-05T17:35:21.482Z,6.36
2024-01-05T17:37:49.082Z,6.58
2024-01-05T17:40:18.979Z,6.23
2024-01-05T17:42:46.834Z,6.64
2024-01-05T17:45:14.946Z,6.54
2024-01-05T17:47:42.617Z,6.64
2024-01-05T17:50:10.569Z,6.29
2024-01-05T17:52:38.052Z,6.38
2024-01-05T17:55:05.761Z,6.70
2024-01-05T17:57:33.343Z,6.59
2024-01-05T18:00:00.788Z,6.95
2024-01-05T18:02:28.520Z,7.03
2024-01-05T18:04:56.376Z,6.87
2024-01-05T18:07:24.077Z,6.97
2024-01-05T18:09:51.569Z,6.87
2024-01-05T18:12:19.032Z,6.86
2024-01-05T18:14:46.997Z,7.00
2024-01-05T18:17:15.356Z,7.10
2024-01-05T18:19:47.956Z,7.05
2024-01-05T18:22:17.710Z,6.54
2024-01-05T18:24:46.884Z,7.15
2024-01-05T18:27:15.280Z,7.15
2024-01-05T18:29:45.663Z,7.14
2024-01-05T18:32:15.328Z,7.38
2024-01-05T18:34:48.699Z,6.98
2024-01-05T18:37:17.826Z,7.21
2024-01-05T18:39:45.871Z,7.27
2024-01-05T18:42:13.472Z,7.33
2024-01-05T18:44:44.694Z,7.35
2024-01-05T18:47:11.948Z,7.42
2024-01-05T18:49:39.245Z,7.46
2024-01-05T18:52:06.533Z,7.30
2024-01-05T18:54:34.337Z,7.08
2024-01-05T18:57:01.665Z,6.80
2024-01-05T18:59:28.769Z,7.01
2024-01-05T19:01:56.365Z,6.71
2024-01-05T19:04:23.928Z,6.83
2024-01-05T19:06:51.394Z,6.38
2024-01-05T19:09:20.008Z,6.32
2024-01-05T19:11:47.303Z,6.76
2024-01-05T19:14:14.504Z,7.11
2024-01-05T19:16:44.453Z,7.27
2024-01-05T19:19:13.245Z,7.35
2024-01-05T19:21:50.112Z,7.25
2024-01-05T19:24:23.310Z,7.16
2024-01-05T19:26:50.530Z,7.21
2024-01-05T19:29:17.227Z,7.03
2024-01-05T19:31:44.532Z,6.79
2024-01-05T19:34:13.449Z,6.93
2024-01-05T19:36:47.067Z,7.09
2024-01-05T19:39:14.568Z,7.22
2024-01-05T19:41:42.859Z,7.27
2024-01-05T19:44:12.924Z,7.25
2024-01-05T19:46:40.895Z,7.27
2024-01-05T19:49:07.864Z,7.29
2024-01-05T19:51:34.705Z,7.36
2024-01-05T19:54:01.526Z,7.40
2024-01-05T19:56:28.276Z,7.48
2024-01-05T19:58:56.135Z,7.59
2024-01-05T20:01:23.353Z,7.75
2024-01-05T20:03:50.462Z,8.01
2024-01-05T20:06:17.885Z,8.18
2024-01-05T20:08:45.568Z,8.17
2024-01-05T20:11:14.729Z,8.26
2024-01-05T20:13:42.017Z,8.32
2024-01-05T20:16:10.812Z,8.32
2024-01-05T20:18:38.272Z,8.45
2024-01-05T20:21:13.045Z,8.60
2024-01-05T20:23:41.778Z,8.43
2024-01-05T20:26:10.987Z,8.35
2024-01-05T20:28:37.706Z,8.36
2024-01-05T20:31:04.901Z,8.35
2024-01-05T20:33:32.305Z,8.45
2024-01-05T20:35:59.347Z,8.61
2024-01-05T20:38:26.124Z,8.63
2024-01-05T20:40:52.952Z,8.73
2024-01-05T20:43:19.716Z,8.17
2024-01-05T20:45:46.882Z,8.09
2024-01-05T20:48:13.929Z,8.07
2024-01-05T20:50:40.755Z,8.12
2024-01-05T20:53:11.810Z,7.91
2024-01-05T20:55:39.572Z,7.93
2024-01-05T20:58:06.298Z,8.13
2024-01-05T21:00:33.244Z,8.00
2024-01-05T21:03:00.242Z,8.18
2024-01-05T21:05:26.998Z,8.36
2024-01-05T21:07:54.198Z,7.93
2024-01-05T21:10:20.898Z,7.17
2024-01-05T21:12:47.682Z,7.15
2024-01-05T21:15:14.544Z,6.88
2024-01-05T21:17:41.335Z,7.15
2024-01-05T21:20:08.894Z,7.30
2024-01-05T21:22:36.330Z,7.69
2024-01-05T21:25:06.710Z,8.10
2024-01-05T21:27:33.706Z,8.39
2024-01-05T21:30:00.609Z,8.03
2024-01-05T21:32:28.871Z,8.26
2024-01-05T21:34:56.474Z,7.92
2024-01-05T21:37:24.572Z,7.06
2024-01-05T21:39:51.434Z,7.23
2024-01-05T21:42:21.225Z,7.45
2024-01-05T21:44:48.109Z,7.71
2024-01-05T21:47:14.914Z,7.98
2024-01-05T21:49:41.789Z,8.36
2024-01-05T21:52:08.949Z,8.68
2024-01-05T21:54:36.299Z,8.88
2024-01-05T21:57:03.374Z,9.00
2024-01-05T21:59:33.432Z,8.79
2024-01-05T22:02:01.419Z,8.81
2024-01-05T22:04:28.408Z,8.88
2024-01-05T22:06:57.474Z,8.85
2024-01-05T22:09:24.930Z,8.99
2024-01-05T22:11:51.700Z,8.74
2024-01-05T22:14:18.553Z,8.39
2024-01-05T22:16:45.989Z,8.39
2024-01-05T22:19:12.982Z,8.40
2024-01-05T22:21:42.137Z,8.18
2024-01-05T22:24:09.136Z,8.11
2024-01-05T22:26:36.370Z,8.10
2024-01-05T22:29:04.629Z,7.80
2024-01-05T22:31:32.792Z,8.00
2024-01-05T22:34:00.398Z,8.26
2024-01-05T22:36:27.453Z,7.51
2024-01-05T22:38:54.289Z,6.95
2024-01-05T22:41:23.477Z,6.77
2024-01-05T22:43:50.457Z,6.46
2024-01-05T22:46:18.458Z,6.76
2024-01-05T22:48:47.372Z,7.37
2024-01-05T22:51:40.754Z,7.79
2024-01-05T22:54:07.572Z,7.96
2024-01-05T22:56:34.389Z,8.04
2024-01-05T22:59:01.138Z,8.04
2024-01-05T23:01:27.893Z,8.10
2024-01-05T23:03:54.941Z,8.13
2024-01-05T23:06:23.855Z,7.87
2024-01-05T23:08:50.815Z,7.47
2024-01-05T23:11:17.591Z,7.17
2024-01-05T23:13:45.031Z,7.28
2024-01-05T23:16:12.198Z,7.37
2024-01-05T23:18:39.098Z,7.59
2024-01-05T23:21:05.950Z,7.74
2024-01-05T23:23:32.789Z,7.74
2024-01-05T23:25:59.539Z,7.69
2024-01-05T23:28:26.265Z,7.74
2024-01-05T23:30:53.401Z,7.57
2024-01-05T23:33:20.830Z,7.76
2024-01-05T23:35:47.893Z,7.76
2024-01-05T23:38:14.621Z,8.08
2024-01-05T23:40:41.659Z,8.18
2024-01-05T23:43:08.384Z,8.05
2024-01-05T23:45:35.363Z,7.79
2024-01-05T23:48:02.374Z,7.35
2024-01-05T23:50:29.199Z,7.54
2024-01-05T23:52:56.039Z,7.37
2024-01-05T23:55:23.424Z,7.13
2024-01-05T23:57:50.291Z,7.02
